Terminal Aerodrome Forecast
Issued by NWS

Home | Current Version | Previous Version | Text Only | Print | Product List | Glossary On
Versions: 1 2 3 4 5 6 7 8 9 10 11 12 13 14 15 16
000
FTUS43 KMPX 231745
TAFAXN
TAF
KAXN 231745Z 2318/2418 30011KT P6SM FEW007
     FM232300 28006KT P6SM SKC
     FM240300 VRB03KT 4SM BR SKC
     FM240500 VRB03KT 1/4SM FZFG VV003
     FM241500 13007KT P6SM SCT008 BKN015 OVC100=

USA.gov is the U.S. government's official web portal to all federal, state and local government web resources and services.